createdAt,value
2018-05-11T00:00:03.224Z,0.00
2018-05-11T00:01:03.243Z,0.00
2018-05-11T00:02:03.263Z,0.00
2018-05-11T00:03:03.285Z,0.00
2018-05-11T00:04:03.303Z,0.00
2018-05-11T00:05:03.328Z,0.00
2018-05-11T00:06:03.344Z,0.00
2018-05-11T00:07:03.365Z,0.00
2018-05-11T00:08:03.385Z,0.00
2018-05-11T00:09:03.405Z,0.00
2018-05-11T00:10:03.426Z,0.00
2018-05-11T00:11:03.448Z,0.00
2018-05-11T00:12:03.466Z,0.00
2018-05-11T00:13:03.485Z,0.00
2018-05-11T00:14:03.507Z,0.00
2018-05-11T00:15:03.527Z,0.00
2018-05-11T00:16:03.546Z,0.00
2018-05-11T00:17:03.566Z,0.00
2018-05-11T00:18:03.587Z,0.00
2018-05-11T00:19:03.607Z,0.00
2018-05-11T00:20:03.628Z,0.00
2018-05-11T00:21:03.648Z,0.00
2018-05-11T00:22:03.669Z,0.00
2018-05-11T00:23:03.688Z,0.00
2018-05-11T00:24:03.707Z,0.00
2018-05-11T00:25:03.731Z,0.00
2018-05-11T00:26:03.751Z,0.00
2018-05-11T00:27:03.768Z,0.00
2018-05-11T00:28:03.788Z,0.00
2018-05-11T00:29:03.808Z,0.00
2018-05-11T00:30:03.829Z,0.00
2018-05-11T00:31:03.850Z,0.00
2018-05-11T00:32:03.869Z,0.00
2018-05-11T00:33:03.889Z,0.00
2018-05-11T00:34:03.910Z,0.00
2018-05-11T00:35:03.932Z,0.00
2018-05-11T00:36:03.949Z,0.00
2018-05-11T00:37:03.970Z,0.00
2018-05-11T00:38:03.990Z,0.00
2018-05-11T00:39:04.011Z,0.00
2018-05-11T00:40:04.030Z,0.00
2018-05-11T00:41:04.050Z,0.00
2018-05-11T00:42:04.072Z,0.00
2018-05-11T00:43:04.092Z,0.00
2018-05-11T00:44:04.113Z,0.00
2018-05-11T00:45:04.131Z,0.00
2018-05-11T00:46:04.153Z,0.00
2018-05-11T00:47:04.173Z,0.00
2018-05-11T00:48:04.191Z,0.00
2018-05-11T00:49:04.212Z,0.00
2018-05-11T00:50:04.235Z,0.00
2018-05-11T00:51:04.267Z,0.00
2018-05-11T00:52:04.272Z,0.00
2018-05-11T00:53:04.292Z,0.00
2018-05-11T00:54:04.312Z,0.00
2018-05-11T00:55:04.333Z,0.00
2018-05-11T00:56:04.352Z,0.00
2018-05-11T00:57:04.372Z,0.00
2018-05-11T00:58:04.392Z,0.00
2018-05-11T00:59:04.418Z,0.00
2018-05-11T01:00:04.435Z,0.00
2018-05-11T01:01:04.452Z,0.00
2018-05-11T01:02:04.473Z,0.00
2018-05-11T01:03:04.494Z,0.00
2018-05-11T01:04:04.512Z,0.00
2018-05-11T01:05:04.534Z,0.00
2018-05-11T01:06:04.555Z,0.00
2018-05-11T01:07:04.573Z,0.00
2018-05-11T01:08:04.593Z,0.00
2018-05-11T01:09:04.614Z,0.00
2018-05-11T01:10:04.634Z,0.00
2018-05-11T01:11:04.654Z,0.00
2018-05-11T01:12:04.674Z,0.00
2018-05-11T01:13:04.695Z,0.00
2018-05-11T01:14:04.714Z,0.00
2018-05-11T01:15:04.735Z,0.00
2018-05-11T01:16:04.754Z,0.00
2018-05-11T01:17:04.803Z,0.00
2018-05-11T01:18:04.794Z,0.00
2018-05-11T01:19:04.816Z,0.00
2018-05-11T01:20:04.833Z,0.00
2018-05-11T01:21:04.854Z,0.00
2018-05-11T01:22:04.874Z,0.00
2018-05-11T01:23:04.895Z,0.00
2018-05-11T01:24:04.913Z,0.00
2018-05-11T01:25:04.936Z,0.00
2018-05-11T01:26:04.955Z,0.00
2018-05-11T01:27:04.976Z,0.00
2018-05-11T01:28:04.995Z,0.00
2018-05-11T01:29:05.016Z,0.00
2018-05-11T01:30:05.035Z,0.00
2018-05-11T01:31:05.054Z,0.00
2018-05-11T01:32:05.075Z,0.00
2018-05-11T01:33:05.095Z,0.00
2018-05-11T01:34:05.116Z,0.00
2018-05-11T01:35:05.136Z,0.00
2018-05-11T01:36:05.155Z,0.00
2018-05-11T01:37:05.176Z,0.00
2018-05-11T01:38:05.196Z,0.00
2018-05-11T01:39:05.216Z,0.00
2018-05-11T01:40:05.240Z,0.00
2018-05-11T01:44:49.022Z,0.00
2018-05-11T01:45:49.036Z,0.00
2018-05-11T01:46:49.057Z,0.00
2018-05-11T01:47:49.088Z,0.00
2018-05-11T01:48:49.138Z,0.00
2018-05-11T01:49:49.121Z,0.00
2018-05-11T01:50:49.136Z,0.00
2018-05-11T01:51:49.159Z,0.00
2018-05-11T01:52:49.181Z,0.00
2018-05-11T01:53:49.198Z,0.00
2018-05-11T01:54:49.217Z,0.00
2018-05-11T01:55:49.240Z,0.00
2018-05-11T01:56:49.259Z,0.00
2018-05-11T01:57:49.277Z,0.00
2018-05-11T01:58:49.298Z,0.00
2018-05-11T01:59:49.318Z,0.00
2018-05-11T02:00:49.338Z,0.00
2018-05-11T02:01:49.362Z,0.00
2018-05-11T02:02:49.378Z,0.00
2018-05-11T02:03:49.398Z,0.00
2018-05-11T02:04:49.421Z,0.00
2018-05-11T02:05:49.437Z,0.00
2018-05-11T02:06:49.458Z,0.00
2018-05-11T02:07:49.477Z,0.00
2018-05-11T02:08:49.499Z,0.00
2018-05-11T02:09:49.517Z,0.00
2018-05-11T02:10:49.537Z,0.00
2018-05-11T02:11:49.557Z,0.00
2018-05-11T02:12:49.577Z,0.00
2018-05-11T02:13:49.599Z,0.00
2018-05-11T02:14:49.616Z,0.00
2018-05-11T02:15:49.637Z,0.00
2018-05-11T02:16:49.657Z,0.00
2018-05-11T02:17:49.676Z,0.00
2018-05-11T02:18:49.699Z,0.00
2018-05-11T02:19:49.716Z,0.00
2018-05-11T02:20:49.742Z,0.00
2018-05-11T02:21:49.756Z,0.00
2018-05-11T02:22:49.783Z,0.00
2018-05-11T02:23:49.796Z,0.00
2018-05-11T02:24:49.816Z,0.00
2018-05-11T02:25:49.922Z,0.00
2018-05-11T02:26:49.857Z,0.00
2018-05-11T02:27:49.875Z,0.00
2018-05-11T02:28:49.894Z,0.00
2018-05-11T02:29:49.915Z,0.00
2018-05-11T02:30:49.942Z,0.00
2018-05-11T02:31:49.955Z,0.00
2018-05-11T02:32:49.975Z,0.00
2018-05-11T02:33:50.006Z,0.00
2018-05-11T02:34:50.014Z,0.00
2018-05-11T02:35:50.036Z,0.00
2018-05-11T02:36:50.058Z,0.00
2018-05-11T02:37:50.073Z,0.00
2018-05-11T02:38:50.093Z,0.00
2018-05-11T02:39:50.114Z,0.00
2018-05-11T02:40:50.137Z,0.00
2018-05-11T02:41:50.154Z,0.00
2018-05-11T02:42:50.173Z,0.00
2018-05-11T02:43:50.193Z,0.00
2018-05-11T02:44:50.213Z,0.00
2018-05-11T02:45:50.236Z,0.00
2018-05-11T02:46:50.257Z,0.00
2018-05-11T02:47:50.273Z,0.00
2018-05-11T02:48:50.293Z,0.00
2018-05-11T02:49:50.312Z,0.00
2018-05-11T02:50:50.331Z,0.00
2018-05-11T02:51:50.351Z,0.00
2018-05-11T02:52:50.372Z,0.00
2018-05-11T02:53:50.391Z,0.00
2018-05-11T02:54:50.411Z,0.00
2018-05-11T02:55:50.431Z,0.00
2018-05-11T02:56:50.451Z,0.00
2018-05-11T02:57:50.469Z,0.00
2018-05-11T02:58:50.490Z,0.00
2018-05-11T02:59:50.514Z,0.00
2018-05-11T03:00:50.530Z,0.00
2018-05-11T03:01:50.549Z,0.00
2018-05-11T03:02:50.569Z,0.00
2018-05-11T03:03:50.590Z,0.00
2018-05-11T03:04:50.609Z,0.00
2018-05-11T03:05:50.629Z,4.00
2018-05-11T03:06:50.648Z,4.00
2018-05-11T03:07:50.668Z,4.00
2018-05-11T03:08:50.692Z,4.00
2018-05-11T03:09:50.707Z,4.00
2018-05-11T03:10:50.729Z,4.00
2018-05-11T03:11:50.747Z,4.00
2018-05-11T03:12:50.767Z,4.00
2018-05-11T03:13:50.789Z,8.00
2018-05-11T03:14:50.806Z,8.00
2018-05-11T03:15:50.826Z,8.00
2018-05-11T03:16:50.864Z,8.00
2018-05-11T03:17:50.865Z,12.00
2018-05-11T03:18:50.884Z,16.00
2018-05-11T03:19:50.905Z,16.00
2018-05-11T03:20:50.925Z,20.00
2018-05-11T03:21:50.943Z,20.00
2018-05-11T03:22:50.963Z,20.00
2018-05-11T03:23:50.983Z,24.00
2018-05-11T03:24:51.003Z,28.00
2018-05-11T03:25:51.024Z,32.00
2018-05-11T03:26:51.044Z,36.00
2018-05-11T03:27:51.066Z,40.00
2018-05-11T03:28:51.083Z,48.00
2018-05-11T03:29:51.101Z,52.00
2018-05-11T03:30:51.125Z,56.00
2018-05-11T03:31:51.143Z,64.00
2018-05-11T03:32:51.161Z,72.00
2018-05-11T03:33:51.181Z,80.00
2018-05-11T03:34:51.200Z,92.00
2018-05-11T03:35:51.221Z,100.00
2018-05-11T03:36:51.239Z,112.00
2018-05-11T03:37:51.259Z,120.00
2018-05-11T03:38:51.279Z,132.00
2018-05-11T03:39:51.301Z,144.00
2018-05-11T03:40:51.319Z,156.00
2018-05-11T03:41:51.341Z,168.00
2018-05-11T03:42:51.360Z,180.00
2018-05-11T03:43:51.378Z,192.00
2018-05-11T03:44:51.400Z,204.00
2018-05-11T03:45:51.421Z,212.00
2018-05-11T03:46:51.437Z,216.00
2018-05-11T03:47:51.464Z,220.00
2018-05-11T03:48:51.477Z,232.00
2018-05-11T03:49:51.495Z,244.00
2018-05-11T03:50:51.516Z,264.00
2018-05-11T03:51:51.536Z,280.00
2018-05-11T03:52:51.556Z,304.00
2018-05-11T03:53:51.577Z,328.00
2018-05-11T03:54:51.596Z,348.00
2018-05-11T03:55:51.615Z,372.00
2018-05-11T03:56:51.635Z,392.00
2018-05-11T03:57:51.662Z,412.00
2018-05-11T03:58:51.675Z,424.00
2018-05-11T03:59:51.727Z,444.00
2018-05-11T04:00:51.718Z,452.00
2018-05-11T04:01:51.734Z,460.00
2018-05-11T04:02:51.753Z,464.00
2018-05-11T04:03:51.774Z,476.00
2018-05-11T04:04:51.794Z,480.00
2018-05-11T04:05:51.813Z,488.00
2018-05-11T04:06:51.832Z,496.00
2018-05-11T04:07:51.852Z,516.00
2018-05-11T04:08:51.877Z,536.00
2018-05-11T04:09:51.892Z,564.00
2018-05-11T04:10:51.913Z,588.00
2018-05-11T04:11:51.932Z,596.00
2018-05-11T04:12:51.952Z,596.00
2018-05-11T04:13:51.972Z,584.00
2018-05-11T04:14:51.992Z,572.00
2018-05-11T04:15:52.012Z,564.00
2018-05-11T04:16:52.033Z,568.00
2018-05-11T04:17:52.096Z,584.00
2018-05-11T04:18:52.071Z,596.00
2018-05-11T04:19:52.092Z,620.00
2018-05-11T04:20:52.124Z,624.00
2018-05-11T04:21:52.131Z,636.00
2018-05-11T04:22:52.151Z,648.00
2018-05-11T04:23:52.174Z,676.00
2018-05-11T04:24:52.192Z,692.00
2018-05-11T04:25:52.214Z,708.00
2018-05-11T04:26:52.232Z,740.00
2018-05-11T04:27:52.252Z,816.00
2018-05-11T04:28:52.271Z,864.00
2018-05-11T04:29:52.291Z,944.00
2018-05-11T04:30:52.311Z,1024.00
2018-05-11T04:31:52.331Z,1048.00
2018-05-11T04:32:52.352Z,1052.00
2018-05-11T04:33:52.371Z,1060.00
2018-05-11T04:34:52.396Z,1080.00
2018-05-11T04:35:52.412Z,1116.00
2018-05-11T04:36:52.433Z,1140.00
2018-05-11T04:37:52.453Z,1164.00
2018-05-11T04:38:52.473Z,1204.00
2018-05-11T04:39:52.492Z,1232.00
2018-05-11T04:40:52.512Z,1292.00
2018-05-11T04:41:52.532Z,1300.00
2018-05-11T04:42:52.552Z,1272.00
2018-05-11T04:43:52.574Z,1232.00
2018-05-11T04:44:52.593Z,1204.00
2018-05-11T04:45:52.613Z,1188.00
2018-05-11T04:46:52.732Z,1248.00
2018-05-11T04:47:52.653Z,1336.00
2018-05-11T04:48:52.673Z,1484.00
2018-05-11T04:49:52.692Z,1540.00
2018-05-11T04:50:52.713Z,1620.00
2018-05-11T04:51:52.733Z,1656.00
2018-05-11T04:52:52.755Z,1808.00
2018-05-11T04:53:52.773Z,1900.00
2018-05-11T04:54:52.794Z,1968.00
2018-05-11T04:55:52.814Z,2000.00
2018-05-11T04:56:52.835Z,2060.00
2018-05-11T04:57:52.856Z,2080.00
2018-05-11T04:58:52.874Z,2132.00
2018-05-11T04:59:52.896Z,2200.00
2018-05-11T05:00:52.916Z,2268.00
2018-05-11T05:01:52.936Z,2252.00
2018-05-11T05:02:52.955Z,2264.00
2018-05-11T05:03:52.975Z,2224.00
2018-05-11T05:04:52.996Z,2172.00
2018-05-11T05:05:53.016Z,2220.00
2018-05-11T05:06:53.036Z,2204.00
2018-05-11T05:07:53.058Z,2104.00
2018-05-11T05:08:53.079Z,2076.00
2018-05-11T05:09:53.097Z,1888.00
2018-05-11T05:10:53.118Z,1760.00
2018-05-11T05:11:53.138Z,1636.00
2018-05-11T05:12:53.160Z,1544.00
2018-05-11T05:13:53.181Z,1420.00
2018-05-11T05:14:53.203Z,1288.00
2018-05-11T05:15:53.222Z,1216.00
2018-05-11T05:16:53.244Z,1220.00
2018-05-11T05:17:53.260Z,1244.00
2018-05-11T05:18:53.281Z,1284.00
2018-05-11T05:19:53.303Z,1344.00
2018-05-11T05:20:53.322Z,1360.00
2018-05-11T05:21:53.342Z,1444.00
2018-05-11T05:22:53.365Z,1548.00
2018-05-11T05:23:53.383Z,1676.00
2018-05-11T05:24:53.404Z,1692.00
2018-05-11T05:25:53.424Z,1632.00
2018-05-11T05:26:53.444Z,1652.00
2018-05-11T05:27:53.464Z,1672.00
2018-05-11T05:28:53.486Z,1656.00
2018-05-11T05:29:53.505Z,1648.00
2018-05-11T05:30:53.527Z,1704.00
2018-05-11T05:31:53.546Z,1744.00
2018-05-11T05:32:53.566Z,1772.00
2018-05-11T05:33:53.587Z,1736.00
2018-05-11T05:34:53.607Z,1764.00
2018-05-11T05:35:53.629Z,1908.00
2018-05-11T05:36:53.649Z,2216.00
2018-05-11T05:37:53.668Z,2400.00
2018-05-11T05:38:53.688Z,2544.00
2018-05-11T05:39:53.710Z,2584.00
2018-05-11T05:40:53.731Z,2444.00
2018-05-11T05:41:53.750Z,2400.00
2018-05-11T05:42:53.770Z,2400.00
2018-05-11T05:43:53.792Z,2500.00
2018-05-11T05:44:53.813Z,2512.00
2018-05-11T05:45:53.842Z,2468.00
2018-05-11T05:46:53.853Z,2408.00
2018-05-11T05:47:53.873Z,2360.00
2018-05-11T05:48:53.896Z,2388.00
2018-05-11T05:49:53.914Z,2492.00
2018-05-11T05:50:53.936Z,2652.00
2018-05-11T05:51:53.957Z,2828.00
2018-05-11T05:52:53.977Z,2864.00
2018-05-11T05:53:53.996Z,2896.00
2018-05-11T05:54:54.018Z,3072.00
2018-05-11T05:55:54.043Z,3276.00
2018-05-11T05:56:54.059Z,3536.00
2018-05-11T05:57:54.079Z,3712.00
2018-05-11T05:58:54.101Z,3812.00
2018-05-11T05:59:54.151Z,3960.00
2018-05-11T06:00:54.141Z,4260.00
2018-05-11T06:01:54.162Z,4228.00
2018-05-11T06:02:54.184Z,4272.00
2018-05-11T06:03:54.203Z,4136.00
2018-05-11T06:04:54.227Z,4020.00
2018-05-11T06:05:54.244Z,4072.00
2018-05-11T06:06:54.270Z,3768.00
2018-05-11T06:07:54.289Z,3584.00
2018-05-11T06:08:54.307Z,3740.00
2018-05-11T06:09:54.331Z,3760.00
2018-05-11T06:10:54.356Z,3760.00
2018-05-11T06:11:54.369Z,3488.00
2018-05-11T06:12:54.394Z,3364.00
2018-05-11T06:13:54.413Z,3628.00
2018-05-11T06:14:54.431Z,3692.00
2018-05-11T06:15:54.451Z,3680.00
2018-05-11T06:16:54.473Z,3696.00
2018-05-11T06:17:54.493Z,3956.00
2018-05-11T06:18:54.514Z,4224.00
2018-05-11T06:19:54.534Z,4516.00
2018-05-11T06:20:54.555Z,4768.00
2018-05-11T06:21:54.590Z,4944.00
2018-05-11T06:22:54.597Z,5160.00
2018-05-11T06:23:54.617Z,4916.00
2018-05-11T06:24:54.662Z,4252.00
2018-05-11T06:25:54.658Z,3880.00
2018-05-11T06:26:54.680Z,3484.00
2018-05-11T06:27:54.701Z,3252.00
2018-05-11T06:28:54.724Z,3212.00
2018-05-11T06:29:54.742Z,3336.00
2018-05-11T06:30:54.764Z,3752.00
2018-05-11T06:31:54.784Z,4368.00
2018-05-11T06:32:54.805Z,4884.00
2018-05-11T06:33:54.824Z,4952.00
2018-05-11T06:34:54.847Z,4612.00
2018-05-11T06:35:54.867Z,4320.00
2018-05-11T06:36:54.890Z,4368.00
2018-05-11T06:37:54.908Z,4492.00
2018-05-11T06:38:54.930Z,4656.00
2018-05-11T06:39:54.950Z,5020.00
2018-05-11T06:40:54.973Z,5560.00
2018-05-11T06:41:54.997Z,5812.00
2018-05-11T06:42:55.014Z,5712.00
2018-05-11T06:43:55.035Z,5856.00
2018-05-11T06:44:55.054Z,5472.00
2018-05-11T06:45:55.109Z,5204.00
2018-05-11T06:46:55.096Z,5256.00
2018-05-11T06:47:55.116Z,5480.00
2018-05-11T06:48:55.139Z,5664.00
2018-05-11T06:49:55.157Z,5504.00
2018-05-11T06:50:55.178Z,5160.00
2018-05-11T06:51:55.200Z,5156.00
2018-05-11T06:52:55.221Z,5688.00
2018-05-11T06:53:55.240Z,6120.00
2018-05-11T06:54:55.261Z,6472.00
2018-05-11T06:55:55.321Z,6832.00
2018-05-11T06:56:55.304Z,7004.00
2018-05-11T06:57:55.324Z,6604.00
2018-05-11T06:58:55.346Z,6532.00
2018-05-11T06:59:55.367Z,7044.00
2018-05-11T07:00:55.388Z,7668.00
2018-05-11T07:01:55.408Z,7756.00
2018-05-11T07:02:55.428Z,7376.00
2018-05-11T07:03:55.449Z,7116.00
2018-05-11T07:04:55.472Z,7800.00
2018-05-11T07:05:55.494Z,9424.00
2018-05-11T07:06:55.512Z,10900.00
2018-05-11T07:07:55.620Z,10440.00
2018-05-11T07:08:55.555Z,9872.00
2018-05-11T07:09:55.576Z,9752.00
2018-05-11T07:10:55.597Z,9636.00
2018-05-11T07:11:55.619Z,8356.00
2018-05-11T07:12:55.640Z,7896.00
2018-05-11T07:13:55.661Z,8020.00
2018-05-11T07:14:55.682Z,7948.00
2018-05-11T07:15:55.702Z,7288.00
2018-05-11T07:16:55.724Z,6412.00
2018-05-11T07:17:55.744Z,6068.00
2018-05-11T07:18:55.766Z,5980.00
2018-05-11T07:19:55.787Z,5996.00
2018-05-11T07:20:55.809Z,5992.00
2018-05-11T07:21:55.829Z,6052.00
2018-05-11T07:22:55.853Z,6248.00
2018-05-11T07:23:55.874Z,6604.00
2018-05-11T07:24:55.894Z,6588.00
2018-05-11T07:25:55.914Z,6712.00
2018-05-11T07:26:55.937Z,6800.00
2018-05-11T07:27:55.959Z,6856.00
2018-05-11T07:28:55.979Z,6988.00
2018-05-11T07:29:56.000Z,7012.00
2018-05-11T07:30:56.021Z,6884.00
2018-05-11T07:31:56.043Z,6812.00
2018-05-11T07:32:56.065Z,6916.00
2018-05-11T07:33:56.085Z,7108.00
2018-05-11T07:34:56.119Z,7324.00
2018-05-11T07:35:56.128Z,7316.00
2018-05-11T07:36:56.150Z,7216.00
2018-05-11T07:37:56.173Z,7064.00
2018-05-11T07:38:56.193Z,7156.00
2018-05-11T07:39:56.213Z,7496.00
2018-05-11T07:40:56.235Z,7708.00
2018-05-11T07:41:56.256Z,8000.00
2018-05-11T07:42:56.278Z,8276.00
2018-05-11T07:43:56.299Z,8472.00
2018-05-11T07:44:56.321Z,8768.00
2018-05-11T07:45:56.341Z,9132.00
2018-05-11T07:46:56.363Z,9196.00
2018-05-11T07:47:56.386Z,9360.00
2018-05-11T07:48:56.407Z,9512.00
2018-05-11T07:49:56.428Z,9684.00
2018-05-11T07:50:56.451Z,10024.00
2018-05-11T07:51:56.471Z,10488.00
2018-05-11T07:52:56.492Z,11252.00
2018-05-11T07:53:56.513Z,12012.00
2018-05-11T07:54:56.535Z,12948.00
2018-05-11T07:55:56.558Z,14708.00
2018-05-11T07:56:56.580Z,17072.00
2018-05-11T07:57:56.600Z,16532.00
2018-05-11T07:58:56.621Z,14348.00
2018-05-11T07:59:56.643Z,12104.00
2018-05-11T08:00:56.666Z,10352.00
2018-05-11T08:01:56.687Z,9408.00
2018-05-11T08:02:56.708Z,8892.00
2018-05-11T08:03:56.768Z,8728.00
2018-05-11T08:04:56.753Z,9208.00
2018-05-11T08:05:56.776Z,10332.00
2018-05-11T08:06:56.795Z,12104.00
2018-05-11T08:07:56.817Z,14308.00
2018-05-11T08:08:56.840Z,16256.00
2018-05-11T08:09:56.860Z,17280.00
2018-05-11T08:10:56.882Z,18368.00
2018-05-11T08:11:56.904Z,19648.00
2018-05-11T08:12:56.926Z,20416.00
2018-05-11T08:13:56.948Z,22656.00
2018-05-11T08:14:56.969Z,24832.00
2018-05-11T08:15:56.992Z,26048.00
2018-05-11T08:16:57.013Z,25824.00
2018-05-11T08:17:57.034Z,25312.00
2018-05-11T08:18:57.058Z,30592.00
2018-05-11T08:19:57.079Z,33632.00
2018-05-11T08:20:57.102Z,59968.00
2018-05-11T08:21:57.123Z,73152.00
2018-05-11T08:22:57.145Z,46560.00
2018-05-11T08:23:57.168Z,85184.00
2018-05-11T08:24:57.191Z,84864.00
2018-05-11T08:25:57.212Z,82976.00
2018-05-11T08:26:57.247Z,29504.00
2018-05-11T08:27:57.260Z,35456.00
2018-05-11T08:28:57.281Z,61344.00
2018-05-11T08:29:57.304Z,47168.00
2018-05-11T08:30:57.328Z,32960.00
2018-05-11T08:31:57.353Z,31648.00
2018-05-11T08:32:57.381Z,31392.00
2018-05-11T08:33:57.401Z,63520.00
2018-05-11T08:34:57.424Z,40352.00
2018-05-11T08:35:57.533Z,39744.00
2018-05-11T08:36:57.475Z,62048.00
2018-05-11T08:37:57.497Z,79360.00
2018-05-11T08:38:57.522Z,89888.00
2018-05-11T08:39:57.548Z,86656.00
2018-05-11T08:40:57.572Z,39392.00
2018-05-11T08:41:57.597Z,24672.00
2018-05-11T08:42:57.621Z,26144.00
2018-05-11T08:43:57.646Z,36800.00
2018-05-11T08:44:57.672Z,43808.00
2018-05-11T08:45:57.697Z,39936.00
2018-05-11T08:46:57.723Z,73472.00
2018-05-11T08:47:57.771Z,67744.00
2018-05-11T08:48:57.774Z,85824.00
2018-05-11T08:49:57.799Z,69728.00
2018-05-11T08:50:57.823Z,56128.00
2018-05-11T08:51:57.881Z,36992.00
2018-05-11T08:52:57.875Z,62432.00
2018-05-11T08:53:57.900Z,77632.00
2018-05-11T08:54:57.925Z,75648.00
2018-05-11T08:55:57.998Z,76352.00
2018-05-11T08:56:57.979Z,80128.00
2018-05-11T08:57:58.005Z,84000.00
2018-05-11T08:58:58.035Z,85216.00
2018-05-11T08:59:58.059Z,84416.00
2018-05-11T09:00:58.085Z,84416.00
2018-05-11T09:01:58.113Z,67360.00
2018-05-11T09:02:58.205Z,84864.00
2018-05-11T09:03:58.167Z,85568.00
2018-05-11T09:04:58.199Z,87360.00
2018-05-11T09:05:58.222Z,90528.00
2018-05-11T09:06:58.251Z,76000.00
2018-05-11T09:07:58.279Z,29312.00
2018-05-11T09:08:58.306Z,89760.00
2018-05-11T09:09:58.336Z,85600.00
2018-05-11T09:10:58.369Z,25920.00
2018-05-11T09:11:58.391Z,32384.00
2018-05-11T09:12:58.432Z,88992.00
2018-05-11T09:13:58.450Z,74624.00
2018-05-11T09:14:58.478Z,48576.00
2018-05-11T09:15:58.505Z,24288.00
2018-05-11T09:16:58.536Z,15560.00
2018-05-11T09:17:58.564Z,13796.00
2018-05-11T09:18:58.593Z,13876.00
2018-05-11T09:19:58.620Z,14184.00
2018-05-11T09:20:58.648Z,15128.00
2018-05-11T09:21:58.764Z,16472.00
2018-05-11T09:22:58.704Z,18144.00
2018-05-11T09:23:58.731Z,19552.00
2018-05-11T09:24:58.760Z,20320.00
2018-05-11T09:25:58.786Z,28608.00
2018-05-11T09:26:58.814Z,95840.00
2018-05-11T09:27:58.840Z,92896.00
2018-05-11T09:28:58.867Z,92288.00
2018-05-11T09:29:58.894Z,93696.00
2018-05-11T09:30:58.923Z,95168.00
2018-05-11T09:31:58.950Z,90080.00
2018-05-11T09:32:58.975Z,20736.00
2018-05-11T09:33:59.001Z,16552.00
2018-05-11T09:34:59.028Z,16148.00
2018-05-11T09:35:59.056Z,15840.00
2018-05-11T09:36:59.087Z,17120.00
2018-05-11T09:37:59.109Z,17160.00
2018-05-11T09:38:59.137Z,18752.00
2018-05-11T09:39:59.167Z,59040.00
2018-05-11T09:40:59.191Z,38336.00
2018-05-11T09:41:59.219Z,43648.00
2018-05-11T09:42:59.243Z,21248.00
2018-05-11T09:43:59.271Z,20160.00
2018-05-11T09:44:59.298Z,23648.00
2018-05-11T09:45:59.326Z,36512.00
2018-05-11T09:46:59.349Z,91872.00
2018-05-11T09:47:59.379Z,90368.00
2018-05-11T09:48:59.403Z,89920.00
2018-05-11T09:49:59.428Z,88896.00
2018-05-11T09:50:59.454Z,90336.00
2018-05-11T09:51:59.481Z,93216.00
2018-05-11T09:52:59.507Z,94080.00
2018-05-11T09:53:59.536Z,37088.00
2018-05-11T09:54:59.616Z,27168.00
2018-05-11T09:55:59.589Z,25120.00
2018-05-11T09:56:59.616Z,37088.00
2018-05-11T09:57:59.643Z,63200.00
2018-05-11T09:58:59.670Z,89472.00
2018-05-11T09:59:59.698Z,71872.00
2018-05-11T10:00:59.726Z,27776.00
2018-05-11T10:01:59.752Z,21280.00
2018-05-11T10:02:59.784Z,20128.00
2018-05-11T10:03:59.808Z,22592.00
2018-05-11T10:04:59.838Z,47040.00
2018-05-11T10:05:59.867Z,80544.00
2018-05-11T10:06:59.891Z,92320.00
2018-05-11T10:07:59.920Z,92096.00
2018-05-11T10:08:59.948Z,27456.00
2018-05-11T10:09:59.978Z,84896.00
2018-05-11T10:11:00.004Z,45184.00
2018-05-11T10:12:00.032Z,24064.00
2018-05-11T10:13:00.060Z,26944.00
2018-05-11T10:14:00.119Z,25248.00
2018-05-11T10:15:00.115Z,26656.00
2018-05-11T10:16:00.147Z,42528.00
2018-05-11T10:17:00.174Z,32992.00
2018-05-11T10:18:00.199Z,53760.00
2018-05-11T10:19:00.227Z,73600.00
2018-05-11T10:20:00.256Z,89184.00
2018-05-11T10:21:00.285Z,43392.00
2018-05-11T10:28:00.479Z,81824.00
2018-05-11T10:29:00.552Z,18336.00
2018-05-11T10:30:00.536Z,15028.00
2018-05-11T10:31:00.560Z,15296.00
2018-05-11T10:32:00.587Z,15956.00
2018-05-11T10:33:00.615Z,17408.00
2018-05-11T10:34:00.643Z,19136.00
2018-05-11T10:35:00.671Z,20928.00
2018-05-11T10:36:00.697Z,22816.00
2018-05-11T10:37:00.724Z,23072.00
2018-05-11T10:38:00.752Z,18592.00
2018-05-11T10:39:00.783Z,18624.00
2018-05-11T10:40:00.805Z,20032.00
2018-05-11T10:41:00.833Z,23488.00
2018-05-11T10:42:00.857Z,34816.00
2018-05-11T10:43:00.887Z,86880.00
2018-05-11T10:44:00.911Z,19200.00
2018-05-11T10:45:00.938Z,19360.00
2018-05-11T10:46:00.964Z,19968.00
2018-05-11T10:47:00.990Z,20224.00
2018-05-11T10:48:01.016Z,21024.00
2018-05-11T10:49:01.044Z,23552.00
2018-05-11T10:50:01.071Z,70688.00
2018-05-11T10:51:01.096Z,21088.00
2018-05-11T10:52:01.123Z,22400.00
2018-05-11T10:53:01.238Z,18656.00
2018-05-11T10:54:01.175Z,18304.00
2018-05-11T10:55:01.202Z,19712.00
2018-05-11T10:56:01.228Z,20160.00
2018-05-11T10:57:01.258Z,20160.00
2018-05-11T10:58:01.280Z,21152.00
2018-05-11T10:59:01.312Z,27072.00
2018-05-11T11:00:01.333Z,55808.00
2018-05-11T11:01:01.368Z,88832.00
2018-05-11T11:02:01.384Z,87360.00
2018-05-11T11:03:01.411Z,86080.00
2018-05-11T11:04:01.440Z,84960.00
2018-05-11T11:05:01.463Z,86368.00
2018-05-11T11:06:01.489Z,87392.00
2018-05-11T11:07:01.517Z,88864.00
2018-05-11T11:08:01.559Z,28096.00
2018-05-11T11:09:01.572Z,86656.00
2018-05-11T11:10:01.595Z,84704.00
2018-05-11T11:11:01.622Z,86112.00
2018-05-11T11:12:01.653Z,86880.00
2018-05-11T11:13:01.679Z,87296.00
2018-05-11T11:14:01.705Z,83712.00
2018-05-11T11:15:01.734Z,82752.00
2018-05-11T11:16:01.761Z,75136.00
2018-05-11T11:17:01.790Z,55104.00
2018-05-11T11:18:01.821Z,25280.00
2018-05-11T11:19:01.847Z,22272.00
2018-05-11T11:20:01.921Z,28864.00
2018-05-11T11:21:01.910Z,21344.00
2018-05-11T11:22:01.938Z,23104.00
2018-05-11T11:23:01.963Z,74592.00
2018-05-11T11:24:01.992Z,76320.00
2018-05-11T11:25:02.020Z,61568.00
2018-05-11T11:26:02.081Z,22464.00
2018-05-11T11:27:02.080Z,86624.00
2018-05-11T11:28:02.108Z,109280.00
2018-05-11T11:29:02.137Z,117344.00
2018-05-11T11:30:02.167Z,81376.00
2018-05-11T11:31:02.196Z,31840.00
2018-05-11T11:32:02.225Z,27872.00
2018-05-11T11:33:02.256Z,26592.00
2018-05-11T11:34:02.283Z,25440.00
2018-05-11T11:35:02.314Z,25344.00
2018-05-11T11:36:02.342Z,26144.00
2018-05-11T11:37:02.373Z,19360.00
2018-05-11T11:38:02.401Z,21440.00
2018-05-11T11:39:02.432Z,22432.00
2018-05-11T11:40:02.463Z,22880.00
2018-05-11T11:41:02.498Z,23904.00
2018-05-11T11:42:02.543Z,25632.00
2018-05-11T11:43:02.551Z,23776.00
2018-05-11T11:44:02.582Z,21696.00
2018-05-11T11:45:02.616Z,21632.00
2018-05-11T11:46:02.643Z,21472.00
2018-05-11T11:47:02.673Z,21600.00
2018-05-11T11:48:02.709Z,20768.00
2018-05-11T11:49:02.734Z,17096.00
2018-05-11T11:50:02.764Z,21248.00
2018-05-11T11:51:02.802Z,21824.00
2018-05-11T11:52:02.825Z,22048.00
2018-05-11T11:53:02.858Z,17860.00
2018-05-11T11:54:02.888Z,21888.00
2018-05-11T11:55:02.916Z,23552.00
2018-05-11T11:56:02.947Z,21632.00
2018-05-11T11:57:02.982Z,19872.00
2018-05-11T11:58:03.008Z,24032.00
2018-05-11T11:59:03.039Z,23392.00
2018-05-11T12:00:03.075Z,22272.00
2018-05-11T12:01:03.099Z,21632.00
2018-05-11T12:02:03.273Z,21248.00
2018-05-11T12:03:03.160Z,20416.00
2018-05-11T12:04:03.191Z,19392.00
2018-05-11T12:05:03.223Z,19104.00
2018-05-11T12:06:03.254Z,19040.00
2018-05-11T12:07:03.285Z,19136.00
2018-05-11T12:08:03.313Z,18784.00
2018-05-11T12:09:03.392Z,19168.00
2018-05-11T12:10:03.375Z,19840.00
2018-05-11T12:11:03.405Z,20960.00
2018-05-11T12:12:03.437Z,17536.00
2018-05-11T12:13:03.467Z,19776.00
2018-05-11T12:14:03.501Z,18592.00
2018-05-11T12:15:03.530Z,20608.00
2018-05-11T12:16:03.561Z,20288.00
2018-05-11T12:17:03.591Z,20512.00
2018-05-11T12:18:03.621Z,20544.00
2018-05-11T12:19:03.652Z,20256.00
2018-05-11T12:20:03.683Z,20256.00
2018-05-11T12:21:03.715Z,19552.00
2018-05-11T12:22:03.747Z,17196.00
2018-05-11T12:23:03.776Z,18208.00
2018-05-11T12:24:03.808Z,17792.00
2018-05-11T12:25:03.839Z,17420.00
2018-05-11T12:26:03.869Z,18016.00
2018-05-11T12:27:03.899Z,18592.00